Terminal Aerodrome Forecast
Issued by NWS Wilmington, NC

Current Version | Previous Version | Graphics & Text | Print | Product List | Glossary Off
Versions: 1 2 3 4 5 6 7 8 9 10 11 12 13 14 15 16 17 18 19 20 21 22

000
FTUS42 KILM 281100
TAFMYR
TAF
KMYR 281137Z 2812/0112 02013G18KT P6SM SCT040 SCT160
     FM281700 02013G18KT P6SM BKN030
     FM010200 01013G22KT P6SM BKN015
     FM010900 02013G20KT P6SM -RA OVC006=

USA.gov is the U.S. government's official web portal to all federal, state and local government web resources and services.